sensor_id;sensor_type;location;lat;lon;timestamp;temperature;humidity
71084;DHT22;58741;52.672;13.548;2023-07-20T00:00:17;15.70;99.90
71084;DHT22;58741;52.672;13.548;2023-07-20T00:02:43;15.70;99.90
71084;DHT22;58741;52.672;13.548;2023-07-20T00:05:09;15.70;99.90
71084;DHT22;58741;52.672;13.548;2023-07-20T00:07:35;15.70;99.90
71084;DHT22;58741;52.672;13.548;2023-07-20T00:10:00;15.70;99.90
71084;DHT22;58741;52.672;13.548;2023-07-20T00:12:26;15.70;99.90
71084;DHT22;58741;52.672;13.548;2023-07-20T00:14:51;15.70;99.90
71084;DHT22;58741;52.672;13.548;2023-07-20T00:17:19;15.60;99.90
71084;DHT22;58741;52.672;13.548;2023-07-20T00:19:44;15.60;99.90
71084;DHT22;58741;52.672;13.548;2023-07-20T00:22:10;15.60;99.90
71084;DHT22;58741;52.672;13.548;2023-07-20T00:24:36;15.60;99.90
71084;DHT22;58741;52.672;13.548;2023-07-20T00:27:01;15.60;99.90
71084;DHT22;58741;52.672;13.548;2023-07-20T00:29:28;15.60;99.90
71084;DHT22;58741;52.672;13.548;2023-07-20T00:31:53;15.60;99.90
71084;DHT22;58741;52.672;13.548;2023-07-20T00:34:19;15.60;99.90
71084;DHT22;58741;52.672;13.548;2023-07-20T00:36:44;15.50;99.90
71084;DHT22;58741;52.672;13.548;2023-07-20T00:39:10;15.50;99.90
71084;DHT22;58741;52.672;13.548;2023-07-20T00:41:35;15.50;99.90
71084;DHT22;58741;52.672;13.548;2023-07-20T00:44:02;15.50;99.90
71084;DHT22;58741;52.672;13.548;2023-07-20T00:46:27;15.40;99.90
71084;DHT22;58741;52.672;13.548;2023-07-20T00:48:53;15.40;99.90
71084;DHT22;58741;52.672;13.548;2023-07-20T00:51:20;15.40;99.90
71084;DHT22;58741;52.672;13.548;2023-07-20T00:53:46;15.40;99.90
71084;DHT22;58741;52.672;13.548;2023-07-20T00:56:15;15.30;99.90
71084;DHT22;58741;52.672;13.548;2023-07-20T00:58:40;15.30;99.90
71084;DHT22;58741;52.672;13.548;2023-07-20T01:01:06;15.30;99.90
71084;DHT22;58741;52.672;13.548;2023-07-20T01:03:32;15.20;99.90
71084;DHT22;58741;52.672;13.548;2023-07-20T01:06:21;15.20;99.90
71084;DHT22;58741;52.672;13.548;2023-07-20T01:14:12;15.10;99.90
71084;DHT22;58741;52.672;13.548;2023-07-20T01:16:37;15.10;99.90
71084;DHT22;58741;52.672;13.548;2023-07-20T01:19:03;15.10;99.90
71084;DHT22;58741;52.672;13.548;2023-07-20T01:21:55;15.10;99.90
71084;DHT22;58741;52.672;13.548;2023-07-20T01:32:31;15.20;99.90
71084;DHT22;58741;52.672;13.548;2023-07-20T01:34:58;15.30;99.90
71084;DHT22;58741;52.672;13.548;2023-07-20T01:37:25;15.30;99.90
71084;DHT22;58741;52.672;13.548;2023-07-20T01:39:55;15.30;99.90
71084;DHT22;58741;52.672;13.548;2023-07-20T01:42:24;15.40;99.90
71084;DHT22;58741;52.672;13.548;2023-07-20T01:44:51;15.40;99.90
71084;DHT22;58741;52.672;13.548;2023-07-20T01:47:18;15.40;99.90
71084;DHT22;58741;52.672;13.548;2023-07-20T01:49:43;15.50;99.90
71084;DHT22;58741;52.672;13.548;2023-07-20T01:52:09;15.50;99.90
71084;DHT22;58741;52.672;13.548;2023-07-20T01:54:34;15.60;99.90
71084;DHT22;58741;52.672;13.548;2023-07-20T01:57:00;15.60;99.90
71084;DHT22;58741;52.672;13.548;2023-07-20T01:59:25;15.60;99.90
71084;DHT22;58741;52.672;13.548;2023-07-20T02:01:52;15.60;99.90
71084;DHT22;58741;52.672;13.548;2023-07-20T02:04:18;15.70;99.90
71084;DHT22;58741;52.672;13.548;2023-07-20T02:06:43;15.70;99.90
71084;DHT22;58741;52.672;13.548;2023-07-20T02:09:10;15.70;99.90
71084;DHT22;58741;52.672;13.548;2023-07-20T02:11:36;15.70;99.90
71084;DHT22;58741;52.672;13.548;2023-07-20T02:14:01;15.70;99.90
71084;DHT22;58741;52.672;13.548;2023-07-20T02:16:27;15.70;99.90
71084;DHT22;58741;52.672;13.548;2023-07-20T02:18:52;15.70;99.90
71084;DHT22;58741;52.672;13.548;2023-07-20T02:21:18;15.70;99.90
71084;DHT22;58741;52.672;13.548;2023-07-20T02:23:44;15.70;99.90
71084;DHT22;58741;52.672;13.548;2023-07-20T02:26:09;15.70;99.90
71084;DHT22;58741;52.672;13.548;2023-07-20T02:28:35;15.70;99.90
71084;DHT22;58741;52.672;13.548;2023-07-20T02:31:00;15.70;99.90
71084;DHT22;58741;52.672;13.548;2023-07-20T02:33:26;15.70;99.90
71084;DHT22;58741;52.672;13.548;2023-07-20T02:35:52;15.70;99.90
71084;DHT22;58741;52.672;13.548;2023-07-20T02:38:18;15.70;99.90
71084;DHT22;58741;52.672;13.548;2023-07-20T02:40:43;15.70;99.90
71084;DHT22;58741;52.672;13.548;2023-07-20T02:43:09;15.60;99.90
71084;DHT22;58741;52.672;13.548;2023-07-20T02:45:35;15.60;99.90
71084;DHT22;58741;52.672;13.548;2023-07-20T02:48:01;15.60;99.90
71084;DHT22;58741;52.672;13.548;2023-07-20T02:50:26;15.60;99.90
71084;DHT22;58741;52.672;13.548;2023-07-20T02:52:52;15.70;99.90
71084;DHT22;58741;52.672;13.548;2023-07-20T02:55:17;15.70;99.90
71084;DHT22;58741;52.672;13.548;2023-07-20T02:57:43;15.70;99.90
71084;DHT22;58741;52.672;13.548;2023-07-20T03:00:09;15.70;99.90
71084;DHT22;58741;52.672;13.548;2023-07-20T03:02:35;15.80;99.90
71084;DHT22;58741;52.672;13.548;2023-07-20T03:05:01;15.80;99.90
71084;DHT22;58741;52.672;13.548;2023-07-20T03:07:28;15.80;99.90
71084;DHT22;58741;52.672;13.548;2023-07-20T03:09:54;15.80;99.90
71084;DHT22;58741;52.672;13.548;2023-07-20T03:12:20;15.80;99.90
71084;DHT22;58741;52.672;13.548;2023-07-20T03:14:46;15.80;99.90
71084;DHT22;58741;52.672;13.548;2023-07-20T03:17:12;15.80;99.90
71084;DHT22;58741;52.672;13.548;2023-07-20T03:19:37;15.80;99.90
71084;DHT22;58741;52.672;13.548;2023-07-20T03:22:03;15.80;99.90
71084;DHT22;58741;52.672;13.548;2023-07-20T03:24:30;15.80;99.90
71084;DHT22;58741;52.672;13.548;2023-07-20T03:26:55;15.90;99.90
71084;DHT22;58741;52.672;13.548;2023-07-20T03:29:21;15.90;99.90
71084;DHT22;58741;52.672;13.548;2023-07-20T03:31:46;15.90;99.90
71084;DHT22;58741;52.672;13.548;2023-07-20T03:34:12;15.90;99.90
71084;DHT22;58741;52.672;13.548;2023-07-20T03:36:38;15.90;99.90
71084;DHT22;58741;52.672;13.548;2023-07-20T03:39:03;15.90;99.90
71084;DHT22;58741;52.672;13.548;2023-07-20T03:41:29;15.90;99.90
71084;DHT22;58741;52.672;13.548;2023-07-20T03:43:54;15.90;99.90
71084;DHT22;58741;52.672;13.548;2023-07-20T03:46:20;16.00;99.90
71084;DHT22;58741;52.672;13.548;2023-07-20T03:48:45;16.00;99.90
71084;DHT22;58741;52.672;13.548;2023-07-20T03:51:11;16.00;99.90
71084;DHT22;58741;52.672;13.548;2023-07-20T03:53:37;16.00;99.90
71084;DHT22;58741;52.672;13.548;2023-07-20T03:56:03;16.00;99.90
71084;DHT22;58741;52.672;13.548;2023-07-20T03:58:28;16.00;99.90
71084;DHT22;58741;52.672;13.548;2023-07-20T04:00:55;16.00;99.90
71084;DHT22;58741;52.672;13.548;2023-07-20T04:03:22;16.00;99.90
71084;DHT22;58741;52.672;13.548;2023-07-20T04:05:53;16.10;99.90
71084;DHT22;58741;52.672;13.548;2023-07-20T04:08:19;16.10;99.90
71084;DHT22;58741;52.672;13.548;2023-07-20T04:10:45;16.10;99.90
71084;DHT22;58741;52.672;13.548;2023-07-20T04:13:11;16.10;99.90
71084;DHT22;58741;52.672;13.548;2023-07-20T04:15:37;16.20;99.90
71084;DHT22;58741;52.672;13.548;2023-07-20T04:18:02;16.20;99.90
71084;DHT22;58741;52.672;13.548;2023-07-20T04:20:28;16.20;99.90
71084;DHT22;58741;52.672;13.548;2023-07-20T04:22:54;16.20;99.90
71084;DHT22;58741;52.672;13.548;2023-07-20T04:25:20;16.20;99.90
71084;DHT22;58741;52.672;13.548;2023-07-20T04:27:46;16.30;99.90
71084;DHT22;58741;52.672;13.548;2023-07-20T04:30:12;16.30;99.90
71084;DHT22;58741;52.672;13.548;2023-07-20T04:32:38;16.30;99.90
71084;DHT22;58741;52.672;13.548;2023-07-20T04:35:07;16.30;99.90
71084;DHT22;58741;52.672;13.548;2023-07-20T04:37:35;16.40;99.90
71084;DHT22;58741;52.672;13.548;2023-07-20T04:40:02;16.40;99.90
71084;DHT22;58741;52.672;13.548;2023-07-20T04:42:28;16.40;99.90
71084;DHT22;58741;52.672;13.548;2023-07-20T04:44:54;16.40;99.90
71084;DHT22;58741;52.672;13.548;2023-07-20T04:47:20;16.50;99.90
71084;DHT22;58741;52.672;13.548;2023-07-20T04:49:47;16.50;99.90
71084;DHT22;58741;52.672;13.548;2023-07-20T04:52:13;16.50;99.90
71084;DHT22;58741;52.672;13.548;2023-07-20T04:54:38;16.60;99.90
71084;DHT22;58741;52.672;13.548;2023-07-20T04:57:11;16.50;99.90
71084;DHT22;58741;52.672;13.548;2023-07-20T04:59:37;16.60;99.90
71084;DHT22;58741;52.672;13.548;2023-07-20T05:02:03;16.60;99.90
71084;DHT22;58741;52.672;13.548;2023-07-20T05:04:29;16.60;99.90
71084;DHT22;58741;52.672;13.548;2023-07-20T05:06:54;16.70;99.90
71084;DHT22;58741;52.672;13.548;2023-07-20T05:09:20;16.70;99.90
71084;DHT22;58741;52.672;13.548;2023-07-20T05:11:46;16.80;99.90
71084;DHT22;58741;52.672;13.548;2023-07-20T05:14:13;16.80;99.90
71084;DHT22;58741;52.672;13.548;2023-07-20T05:16:39;16.80;99.90
71084;DHT22;58741;52.672;13.548;2023-07-20T05:19:05;16.80;99.90
71084;DHT22;58741;52.672;13.548;2023-07-20T05:21:31;16.80;99.90
71084;DHT22;58741;52.672;13.548;2023-07-20T05:23:56;16.80;99.90
71084;DHT22;58741;52.672;13.548;2023-07-20T05:26:22;16.80;99.90
71084;DHT22;58741;52.672;13.548;2023-07-20T05:28:48;16.80;99.90
71084;DHT22;58741;52.672;13.548;2023-07-20T05:31:13;16.90;99.90
71084;DHT22;58741;52.672;13.548;2023-07-20T05:33:39;16.90;99.90
71084;DHT22;58741;52.672;13.548;2023-07-20T05:36:04;16.90;99.90
71084;DHT22;58741;52.672;13.548;2023-07-20T05:38:30;17.00;99.90
71084;DHT22;58741;52.672;13.548;2023-07-20T05:40:59;17.00;99.90
71084;DHT22;58741;52.672;13.548;2023-07-20T05:43:26;17.10;99.90
71084;DHT22;58741;52.672;13.548;2023-07-20T05:45:51;17.10;99.90
71084;DHT22;58741;52.672;13.548;2023-07-20T05:48:17;17.20;99.90
71084;DHT22;58741;52.672;13.548;2023-07-20T05:50:43;17.20;99.90
71084;DHT22;58741;52.672;13.548;2023-07-20T05:53:09;17.20;99.90
71084;DHT22;58741;52.672;13.548;2023-07-20T05:55:34;17.30;99.90
71084;DHT22;58741;52.672;13.548;2023-07-20T05:58:00;17.30;99.90
71084;DHT22;58741;52.672;13.548;2023-07-20T06:00:25;17.30;99.90
71084;DHT22;58741;52.672;13.548;2023-07-20T06:02:53;17.40;99.90
71084;DHT22;58741;52.672;13.548;2023-07-20T06:05:19;17.30;99.90
71084;DHT22;58741;52.672;13.548;2023-07-20T06:07:45;17.30;99.90
71084;DHT22;58741;52.672;13.548;2023-07-20T06:10:11;17.40;99.90
71084;DHT22;58741;52.672;13.548;2023-07-20T06:12:36;17.40;99.90
71084;DHT22;58741;52.672;13.548;2023-07-20T06:15:12;17.50;99.90
71084;DHT22;58741;52.672;13.548;2023-07-20T06:17:49;17.40;99.90
71084;DHT22;58741;52.672;13.548;2023-07-20T06:20:14;17.50;99.90
71084;DHT22;58741;52.672;13.548;2023-07-20T06:22:40;17.70;99.90
71084;DHT22;58741;52.672;13.548;2023-07-20T06:25:06;17.80;99.90
71084;DHT22;58741;52.672;13.548;2023-07-20T06:27:32;18.00;99.90
71084;DHT22;58741;52.672;13.548;2023-07-20T06:29:57;18.10;99.90
71084;DHT22;58741;52.672;13.548;2023-07-20T06:32:23;18.30;99.90
71084;DHT22;58741;52.672;13.548;2023-07-20T06:34:48;18.60;99.60
71084;DHT22;58741;52.672;13.548;2023-07-20T06:37:14;18.70;99.70
71084;DHT22;58741;52.672;13.548;2023-07-20T06:39:39;18.80;99.80
71084;DHT22;58741;52.672;13.548;2023-07-20T06:42:05;18.90;99.90
71084;DHT22;58741;52.672;13.548;2023-07-20T06:44:31;18.90;98.20
71084;DHT22;58741;52.672;13.548;2023-07-20T06:46:56;18.90;98.50
71084;DHT22;58741;52.672;13.548;2023-07-20T06:49:27;18.90;98.60
71084;DHT22;58741;52.672;13.548;2023-07-20T06:51:52;18.90;97.70
71084;DHT22;58741;52.672;13.548;2023-07-20T06:54:18;19.00;97.80
71084;DHT22;58741;52.672;13.548;2023-07-20T06:56:44;19.00;98.20
71084;DHT22;58741;52.672;13.548;2023-07-20T06:59:09;19.20;98.10
71084;DHT22;58741;52.672;13.548;2023-07-20T07:01:35;19.10;96.90
71084;DHT22;58741;52.672;13.548;2023-07-20T07:04:00;18.90;96.70
71084;DHT22;58741;52.672;13.548;2023-07-20T07:06:26;18.80;98.10
71084;DHT22;58741;52.672;13.548;2023-07-20T07:08:53;18.90;97.60
71084;DHT22;58741;52.672;13.548;2023-07-20T07:11:18;19.10;96.50
71084;DHT22;58741;52.672;13.548;2023-07-20T07:13:44;19.30;97.70
71084;DHT22;58741;52.672;13.548;2023-07-20T07:16:12;19.50;96.30
71084;DHT22;58741;52.672;13.548;2023-07-20T07:18:40;19.50;96.30
71084;DHT22;58741;52.672;13.548;2023-07-20T07:21:05;19.50;95.80
71084;DHT22;58741;52.672;13.548;2023-07-20T07:23:31;19.50;96.00
71084;DHT22;58741;52.672;13.548;2023-07-20T07:25:56;19.50;95.10
71084;DHT22;58741;52.672;13.548;2023-07-20T07:28:22;19.60;95.50
71084;DHT22;58741;52.672;13.548;2023-07-20T07:30:48;19.80;95.90
71084;DHT22;58741;52.672;13.548;2023-07-20T07:33:13;20.00;94.50
71084;DHT22;58741;52.672;13.548;2023-07-20T07:35:39;20.00;93.50
71084;DHT22;58741;52.672;13.548;2023-07-20T07:38:04;20.10;93.90
71084;DHT22;58741;52.672;13.548;2023-07-20T07:40:32;20.30;93.40
71084;DHT22;58741;52.672;13.548;2023-07-20T07:42:57;20.60;93.40
71084;DHT22;58741;52.672;13.548;2023-07-20T07:45:23;20.70;93.00
71084;DHT22;58741;52.672;13.548;2023-07-20T07:47:48;20.80;92.30
71084;DHT22;58741;52.672;13.548;2023-07-20T07:50:14;20.90;93.00
71084;DHT22;58741;52.672;13.548;2023-07-20T07:52:40;20.80;91.40
71084;DHT22;58741;52.672;13.548;2023-07-20T07:55:06;20.80;87.80
71084;DHT22;58741;52.672;13.548;2023-07-20T07:57:31;20.50;90.40
71084;DHT22;58741;52.672;13.548;2023-07-20T07:59:57;20.50;88.30
71084;DHT22;58741;52.672;13.548;2023-07-20T08:02:22;20.40;89.10
71084;DHT22;58741;52.672;13.548;2023-07-20T08:04:48;20.60;90.10
71084;DHT22;58741;52.672;13.548;2023-07-20T08:07:16;20.80;90.20
71084;DHT22;58741;52.672;13.548;2023-07-20T08:09:42;20.80;90.00
71084;DHT22;58741;52.672;13.548;2023-07-20T08:12:07;20.90;86.90
71084;DHT22;58741;52.672;13.548;2023-07-20T08:14:33;20.90;89.60
71084;DHT22;58741;52.672;13.548;2023-07-20T08:16:59;20.90;82.80
71084;DHT22;58741;52.672;13.548;2023-07-20T08:19:25;20.90;87.70
71084;DHT22;58741;52.672;13.548;2023-07-20T08:21:50;21.00;86.40
71084;DHT22;58741;52.672;13.548;2023-07-20T08:24:16;21.00;80.90
71084;DHT22;58741;52.672;13.548;2023-07-20T08:26:41;20.90;80.20
71084;DHT22;58741;52.672;13.548;2023-07-20T08:29:07;20.80;82.80
71084;DHT22;58741;52.672;13.548;2023-07-20T08:31:32;20.80;85.10
71084;DHT22;58741;52.672;13.548;2023-07-20T08:33:58;21.00;85.60
71084;DHT22;58741;52.672;13.548;2023-07-20T08:36:24;21.20;86.00
71084;DHT22;58741;52.672;13.548;2023-07-20T08:38:50;21.40;81.10
71084;DHT22;58741;52.672;13.548;2023-07-20T08:41:16;21.40;80.60
71084;DHT22;58741;52.672;13.548;2023-07-20T08:43:42;21.60;84.50
71084;DHT22;58741;52.672;13.548;2023-07-20T08:46:10;21.90;82.80
71084;DHT22;58741;52.672;13.548;2023-07-20T08:48:39;22.00;76.40
71084;DHT22;58741;52.672;13.548;2023-07-20T08:51:06;22.10;78.00
71084;DHT22;58741;52.672;13.548;2023-07-20T08:53:32;22.10;77.60
71084;DHT22;58741;52.672;13.548;2023-07-20T08:55:59;22.10;79.90
71084;DHT22;58741;52.672;13.548;2023-07-20T08:58:26;22.10;76.90
71084;DHT22;58741;52.672;13.548;2023-07-20T09:00:54;22.20;78.80
71084;DHT22;58741;52.672;13.548;2023-07-20T09:03:20;22.20;77.70
71084;DHT22;58741;52.672;13.548;2023-07-20T09:05:46;22.30;76.20
71084;DHT22;58741;52.672;13.548;2023-07-20T09:08:12;22.30;73.70
71084;DHT22;58741;52.672;13.548;2023-07-20T09:10:37;22.40;68.60
71084;DHT22;58741;52.672;13.548;2023-07-20T09:13:03;22.30;74.10
71084;DHT22;58741;52.672;13.548;2023-07-20T09:15:29;22.30;74.90
71084;DHT22;58741;52.672;13.548;2023-07-20T09:17:54;22.30;73.90
71084;DHT22;58741;52.672;13.548;2023-07-20T09:20:20;22.40;76.20
71084;DHT22;58741;52.672;13.548;2023-07-20T09:22:47;22.40;75.10
71084;DHT22;58741;52.672;13.548;2023-07-20T09:25:13;22.40;73.80
71084;DHT22;58741;52.672;13.548;2023-07-20T09:27:43;22.30;74.00
71084;DHT22;58741;52.672;13.548;2023-07-20T09:30:10;22.20;73.40
71084;DHT22;58741;52.672;13.548;2023-07-20T09:32:46;22.10;73.60
71084;DHT22;58741;52.672;13.548;2023-07-20T09:35:16;22.00;73.30
71084;DHT22;58741;52.672;13.548;2023-07-20T09:40:18;21.70;74.80
71084;DHT22;58741;52.672;13.548;2023-07-20T09:42:44;21.50;75.80
71084;DHT22;58741;52.672;13.548;2023-07-20T09:45:10;21.40;78.60
71084;DHT22;58741;52.672;13.548;2023-07-20T09:47:37;21.30;79.40
71084;DHT22;58741;52.672;13.548;2023-07-20T09:50:04;21.30;79.10
71084;DHT22;58741;52.672;13.548;2023-07-20T09:52:31;21.20;77.60
71084;DHT22;58741;52.672;13.548;2023-07-20T09:54:57;21.10;77.00
71084;DHT22;58741;52.672;13.548;2023-07-20T09:57:23;20.90;79.20
71084;DHT22;58741;52.672;13.548;2023-07-20T09:59:50;20.80;79.20
71084;DHT22;58741;52.672;13.548;2023-07-20T10:02:25;20.80;82.70
71084;DHT22;58741;52.672;13.548;2023-07-20T10:04:56;20.80;80.30
71084;DHT22;58741;52.672;13.548;2023-07-20T10:07:27;20.80;79.40
71084;DHT22;58741;52.672;13.548;2023-07-20T10:09:53;20.90;81.90
71084;DHT22;58741;52.672;13.548;2023-07-20T10:12:22;21.00;80.80
71084;DHT22;58741;52.672;13.548;2023-07-20T10:14:57;21.00;82.70
71084;DHT22;58741;52.672;13.548;2023-07-20T10:17:25;21.00;80.20
71084;DHT22;58741;52.672;13.548;2023-07-20T10:19:55;20.90;79.20
71084;DHT22;58741;52.672;13.548;2023-07-20T10:22:31;20.90;80.70
71084;DHT22;58741;52.672;13.548;2023-07-20T10:24:58;20.80;82.80
71084;DHT22;58741;52.672;13.548;2023-07-20T10:27:24;20.80;83.50
71084;DHT22;58741;52.672;13.548;2023-07-20T10:29:51;20.60;82.50
71084;DHT22;58741;52.672;13.548;2023-07-20T10:32:19;20.60;86.30
71084;DHT22;58741;52.672;13.548;2023-07-20T10:34:52;20.70;87.50
71084;DHT22;58741;52.672;13.548;2023-07-20T10:37:56;20.90;88.10
71084;DHT22;58741;52.672;13.548;2023-07-20T10:40:32;21.10;86.90
71084;DHT22;58741;52.672;13.548;2023-07-20T10:42:59;21.30;85.50
71084;DHT22;58741;52.672;13.548;2023-07-20T10:45:35;21.40;82.30
71084;DHT22;58741;52.672;13.548;2023-07-20T10:48:15;21.30;79.70
71084;DHT22;58741;52.672;13.548;2023-07-20T10:50:42;21.40;82.50
71084;DHT22;58741;52.672;13.548;2023-07-20T10:53:13;21.50;82.80
71084;DHT22;58741;52.672;13.548;2023-07-20T10:55:39;21.60;81.20
71084;DHT22;58741;52.672;13.548;2023-07-20T10:58:13;21.70;82.10
71084;DHT22;58741;52.672;13.548;2023-07-20T11:01:00;21.70;82.00
71084;DHT22;58741;52.672;13.548;2023-07-20T11:03:33;21.80;79.40
71084;DHT22;58741;52.672;13.548;2023-07-20T11:06:00;21.60;76.00
71084;DHT22;58741;52.672;13.548;2023-07-20T11:08:45;21.50;79.70
71084;DHT22;58741;52.672;13.548;2023-07-20T11:11:30;21.40;80.60
71084;DHT22;58741;52.672;13.548;2023-07-20T11:14:04;21.30;78.60
71084;DHT22;58741;52.672;13.548;2023-07-20T11:16:44;21.20;78.60
71084;DHT22;58741;52.672;13.548;2023-07-20T11:19:19;21.10;80.90
71084;DHT22;58741;52.672;13.548;2023-07-20T11:21:46;21.00;80.10
71084;DHT22;58741;52.672;13.548;2023-07-20T11:24:14;20.90;81.50
71084;DHT22;58741;52.672;13.548;2023-07-20T11:26:41;20.80;84.00
71084;DHT22;58741;52.672;13.548;2023-07-20T11:29:06;20.90;84.80
71084;DHT22;58741;52.672;13.548;2023-07-20T11:31:35;21.10;87.10
71084;DHT22;58741;52.672;13.548;2023-07-20T11:34:01;21.30;83.10
71084;DHT22;58741;52.672;13.548;2023-07-20T11:36:27;21.60;86.00
71084;DHT22;58741;52.672;13.548;2023-07-20T11:38:53;21.90;87.80
71084;DHT22;58741;52.672;13.548;2023-07-20T11:41:19;22.20;84.70
71084;DHT22;58741;52.672;13.548;2023-07-20T11:43:45;22.50;82.90
71084;DHT22;58741;52.672;13.548;2023-07-20T11:46:11;22.60;74.00
71084;DHT22;58741;52.672;13.548;2023-07-20T11:48:36;22.50;73.30
71084;DHT22;58741;52.672;13.548;2023-07-20T11:51:02;22.40;73.10
71084;DHT22;58741;52.672;13.548;2023-07-20T11:53:28;22.20;70.50
71084;DHT22;58741;52.672;13.548;2023-07-20T11:55:54;22.10;68.30
71084;DHT22;58741;52.672;13.548;2023-07-20T11:58:20;22.10;70.50
71084;DHT22;58741;52.672;13.548;2023-07-20T12:00:47;22.00;66.90
71084;DHT22;58741;52.672;13.548;2023-07-20T12:03:13;21.90;69.30
71084;DHT22;58741;52.672;13.548;2023-07-20T12:05:39;21.90;65.70
71084;DHT22;58741;52.672;13.548;2023-07-20T12:08:05;21.80;67.10
71084;DHT22;58741;52.672;13.548;2023-07-20T12:10:31;21.80;67.90
71084;DHT22;58741;52.672;13.548;2023-07-20T12:13:03;21.80;71.00
71084;DHT22;58741;52.672;13.548;2023-07-20T12:15:32;21.80;70.60
71084;DHT22;58741;52.672;13.548;2023-07-20T12:18:00;21.80;72.00
71084;DHT22;58741;52.672;13.548;2023-07-20T12:20:36;21.80;71.90
71084;DHT22;58741;52.672;13.548;2023-07-20T12:23:11;21.90;72.80
71084;DHT22;58741;52.672;13.548;2023-07-20T12:25:42;22.00;74.40
71084;DHT22;58741;52.672;13.548;2023-07-20T12:28:16;22.10;72.20
71084;DHT22;58741;52.672;13.548;2023-07-20T12:30:43;22.20;69.10
71084;DHT22;58741;52.672;13.548;2023-07-20T12:33:12;22.20;69.30
71084;DHT22;58741;52.672;13.548;2023-07-20T12:35:41;22.30;67.40
71084;DHT22;58741;52.672;13.548;2023-07-20T12:38:08;22.40;67.50
71084;DHT22;58741;52.672;13.548;2023-07-20T12:40:34;22.70;67.90
71084;DHT22;58741;52.672;13.548;2023-07-20T12:43:00;22.90;64.50
71084;DHT22;58741;52.672;13.548;2023-07-20T12:45:25;23.20;67.10
71084;DHT22;58741;52.672;13.548;2023-07-20T12:47:51;23.60;67.30
71084;DHT22;58741;52.672;13.548;2023-07-20T12:50:17;23.90;61.60
71084;DHT22;58741;52.672;13.548;2023-07-20T12:52:42;23.90;59.10
71084;DHT22;58741;52.672;13.548;2023-07-20T12:55:09;24.00;57.10
71084;DHT22;58741;52.672;13.548;2023-07-20T12:57:36;24.20;61.50
71084;DHT22;58741;52.672;13.548;2023-07-20T13:00:06;24.30;59.10
71084;DHT22;58741;52.672;13.548;2023-07-20T13:02:33;24.50;57.20
71084;DHT22;58741;52.672;13.548;2023-07-20T13:04:59;24.70;53.20
71084;DHT22;58741;52.672;13.548;2023-07-20T13:07:38;24.50;55.50
71084;DHT22;58741;52.672;13.548;2023-07-20T13:10:05;24.60;57.80
71084;DHT22;58741;52.672;13.548;2023-07-20T13:12:32;24.90;58.60
71084;DHT22;58741;52.672;13.548;2023-07-20T13:14:58;25.00;56.90
71084;DHT22;58741;52.672;13.548;2023-07-20T13:17:26;25.20;55.90
71084;DHT22;58741;52.672;13.548;2023-07-20T13:19:52;25.50;53.10
71084;DHT22;58741;52.672;13.548;2023-07-20T13:22:18;25.60;53.50
71084;DHT22;58741;52.672;13.548;2023-07-20T13:24:45;25.70;51.20
71084;DHT22;58741;52.672;13.548;2023-07-20T13:27:18;25.80;55.40
71084;DHT22;58741;52.672;13.548;2023-07-20T13:29:44;25.90;56.00
71084;DHT22;58741;52.672;13.548;2023-07-20T13:32:14;26.10;53.70
71084;DHT22;58741;52.672;13.548;2023-07-20T13:34:40;26.10;53.60
71084;DHT22;58741;52.672;13.548;2023-07-20T13:37:06;26.20;53.30
71084;DHT22;58741;52.672;13.548;2023-07-20T13:39:31;26.30;54.60
71084;DHT22;58741;52.672;13.548;2023-07-20T13:41:57;26.50;52.50
71084;DHT22;58741;52.672;13.548;2023-07-20T13:44:22;26.70;51.40
71084;DHT22;58741;52.672;13.548;2023-07-20T13:46:49;26.80;49.70
71084;DHT22;58741;52.672;13.548;2023-07-20T13:49:15;26.90;49.60
71084;DHT22;58741;52.672;13.548;2023-07-20T13:51:42;27.20;52.90
71084;DHT22;58741;52.672;13.548;2023-07-20T13:54:08;27.30;47.20
71084;DHT22;58741;52.672;13.548;2023-07-20T13:56:33;27.10;47.10
71084;DHT22;58741;52.672;13.548;2023-07-20T13:58:59;26.80;46.00
71084;DHT22;58741;52.672;13.548;2023-07-20T14:01:25;26.60;48.40
71084;DHT22;58741;52.672;13.548;2023-07-20T14:03:51;26.60;50.40
71084;DHT22;58741;52.672;13.548;2023-07-20T14:06:16;26.70;48.90
71084;DHT22;58741;52.672;13.548;2023-07-20T14:08:43;26.80;49.90
71084;DHT22;58741;52.672;13.548;2023-07-20T14:11:12;26.80;50.00
71084;DHT22;58741;52.672;13.548;2023-07-20T14:13:38;26.70;47.90
71084;DHT22;58741;52.672;13.548;2023-07-20T14:16:04;26.70;49.40
71084;DHT22;58741;52.672;13.548;2023-07-20T14:18:29;26.80;46.70
71084;DHT22;58741;52.672;13.548;2023-07-20T14:20:55;26.60;48.30
71084;DHT22;58741;52.672;13.548;2023-07-20T14:23:21;26.40;50.00
71084;DHT22;58741;52.672;13.548;2023-07-20T14:25:47;26.40;49.50
71084;DHT22;58741;52.672;13.548;2023-07-20T14:28:12;26.40;50.20
71084;DHT22;58741;52.672;13.548;2023-07-20T14:30:38;26.60;48.70
71084;DHT22;58741;52.672;13.548;2023-07-20T14:33:04;26.70;48.20
71084;DHT22;58741;52.672;13.548;2023-07-20T14:35:29;26.80;50.70
71084;DHT22;58741;52.672;13.548;2023-07-20T14:37:55;26.90;50.60
71084;DHT22;58741;52.672;13.548;2023-07-20T14:40:20;27.00;47.80
71084;DHT22;58741;52.672;13.548;2023-07-20T14:42:46;26.90;49.20
71084;DHT22;58741;52.672;13.548;2023-07-20T14:45:12;26.80;48.80
71084;DHT22;58741;52.672;13.548;2023-07-20T14:47:39;26.70;46.90
71084;DHT22;58741;52.672;13.548;2023-07-20T14:50:06;26.70;50.90
71084;DHT22;58741;52.672;13.548;2023-07-20T14:52:31;27.00;49.40
71084;DHT22;58741;52.672;13.548;2023-07-20T14:54:57;27.00;47.40
71084;DHT22;58741;52.672;13.548;2023-07-20T14:57:23;27.10;46.20
71084;DHT22;58741;52.672;13.548;2023-07-20T14:59:49;27.10;47.70
71084;DHT22;58741;52.672;13.548;2023-07-20T15:02:15;27.20;46.10
71084;DHT22;58741;52.672;13.548;2023-07-20T15:04:50;27.30;47.00
71084;DHT22;58741;52.672;13.548;2023-07-20T15:07:20;27.00;46.00
71084;DHT22;58741;52.672;13.548;2023-07-20T15:09:46;26.80;47.60
71084;DHT22;58741;52.672;13.548;2023-07-20T15:12:12;26.80;46.40
71084;DHT22;58741;52.672;13.548;2023-07-20T15:14:42;26.80;44.50
71084;DHT22;58741;52.672;13.548;2023-07-20T15:17:09;26.50;47.50
71084;DHT22;58741;52.672;13.548;2023-07-20T15:19:34;26.30;48.40
71084;DHT22;58741;52.672;13.548;2023-07-20T15:22:02;26.30;49.90
71084;DHT22;58741;52.672;13.548;2023-07-20T15:24:29;26.20;48.60
71084;DHT22;58741;52.672;13.548;2023-07-20T15:26:55;26.00;47.80
71084;DHT22;58741;52.672;13.548;2023-07-20T15:29:20;25.60;48.80